KMRN/MRN METAR and TAF weather

Enter ICAO airport designator
Station Type Date Time Source
KMRN METAR 2020/07/02 21:35 UTC NOAA

KMRN 022135Z AUTO 00000KT 10SM SCT100 30/13 A2998 RMK AO2 T03000128


Station Type Date Time Source
KMRN Decoded METAR 2020/07/02 21:35 UTC NOAA

Morganton, Morganton-Lenoir Airport, NC, United States (KMRN) 35-49-17N 081-36-39W
Jul 02, 2020 - 05:35 PM EDT / 2020.07.02 2135 UTC
Wind: Calm:0
Visibility: 10 mile(s):0
Sky conditions: partly cloudy
Temperature: 86.0 F (30.0 C)
Dew Point: 55.0 F (12.8 C)
Relative Humidity: 34%
Pressure (altimeter): 29.98 in. Hg (1015 hPa)
ob: KMRN 022135Z AUTO 00000KT 10SM SCT100 30/13 A2998 RMK AO2 T03000128
cycle: 21

Station Type Date Time Source
KMRN TAF UTC NOAA

Error!

Example: see airport list